createdAt,value
2018-12-27T00:02:14.657Z,40.90
2018-12-27T00:04:42.303Z,40.90
2018-12-27T00:07:10.136Z,37.90
2018-12-27T00:09:37.946Z,45.35
2018-12-27T00:12:05.539Z,45.15
2018-12-27T00:14:33.121Z,48.50
2018-12-27T00:17:00.617Z,49.33
2018-12-27T00:19:28.153Z,52.80
2018-12-27T00:21:55.662Z,51.45
2018-12-27T00:24:23.216Z,51.63
2018-12-27T00:26:50.730Z,51.55
2018-12-27T00:29:18.240Z,52.38
2018-12-27T00:31:45.878Z,57.53
2018-12-27T00:34:13.477Z,57.30
2018-12-27T00:36:41.073Z,57.50
2018-12-27T00:39:08.702Z,52.20
2018-12-27T00:41:36.298Z,58.17
2018-12-27T00:44:03.880Z,58.42
2018-12-27T00:46:31.498Z,55.17
2018-12-27T00:48:59.077Z,56.68
2018-12-27T00:51:26.675Z,53.58
2018-12-27T00:53:54.305Z,54.85
2018-12-27T00:56:21.893Z,55.55
2018-12-27T00:58:49.484Z,55.83
2018-12-27T01:01:17.097Z,55.25
2018-12-27T01:03:44.707Z,60.55
2018-12-27T01:06:12.392Z,58.35
2018-12-27T01:08:40.001Z,53.40
2018-12-27T01:11:07.618Z,50.52
2018-12-27T01:13:35.211Z,51.65
2018-12-27T01:16:02.826Z,49.77
2018-12-27T01:18:30.418Z,50.78
2018-12-27T01:20:58.026Z,48.50
2018-12-27T01:23:25.649Z,47.60
2018-12-27T01:25:53.247Z,47.88
2018-12-27T01:28:20.875Z,44.35
2018-12-27T01:30:48.458Z,43.08
2018-12-27T01:33:18.849Z,41.35
2018-12-27T01:35:45.327Z,40.70
2018-12-27T01:38:14.317Z,37.30
2018-12-27T01:40:41.949Z,44.58
2018-12-27T01:43:09.545Z,39.38
2018-12-27T01:45:37.138Z,41.58
2018-12-27T01:48:04.755Z,35.38
2018-12-27T01:50:32.383Z,35.75
2018-12-27T01:53:00.034Z,35.28
2018-12-27T01:55:27.630Z,34.63
2018-12-27T01:57:55.252Z,33.55
2018-12-27T02:00:22.858Z,31.65
2018-12-27T02:02:50.480Z,34.58
2018-12-27T02:05:18.122Z,30.95
2018-12-27T02:07:45.713Z,30.00
2018-12-27T02:10:13.306Z,31.57
2018-12-27T02:12:40.926Z,29.27
2018-12-27T02:15:08.557Z,29.80
2018-12-27T02:17:36.148Z,29.72
2018-12-27T02:20:03.731Z,31.23
2018-12-27T02:22:31.432Z,31.60
2018-12-27T02:24:59.001Z,26.93
2018-12-27T02:27:26.608Z,33.30
2018-12-27T02:29:54.206Z,31.95
2018-12-27T02:32:21.851Z,30.85
2018-12-27T02:34:49.454Z,27.85
2018-12-27T02:37:17.061Z,27.45
2018-12-27T02:39:44.677Z,30.40
2018-12-27T02:42:12.666Z,29.42
2018-12-27T02:44:40.265Z,28.55
2018-12-27T02:47:07.858Z,25.62
2018-12-27T02:49:35.499Z,26.77
2018-12-27T02:52:03.096Z,32.42
2018-12-27T02:54:30.684Z,26.65
2018-12-27T02:56:58.312Z,28.83
2018-12-27T02:59:25.908Z,28.52
2018-12-27T03:01:53.499Z,23.50
2018-12-27T03:04:21.129Z,27.40
2018-12-27T03:06:48.724Z,29.25
2018-12-27T03:09:16.322Z,29.15
2018-12-27T03:11:43.942Z,22.60
2018-12-27T03:14:11.525Z,25.70
2018-12-27T03:16:39.110Z,25.70
2018-12-27T03:19:06.747Z,29.42
2018-12-27T03:21:34.346Z,27.80
2018-12-27T03:24:01.946Z,24.35
2018-12-27T03:26:29.580Z,26.17
2018-12-27T03:28:57.166Z,23.50
2018-12-27T03:31:24.755Z,22.20
2018-12-27T03:33:52.741Z,22.50
2018-12-27T03:36:20.690Z,21.82
2018-12-27T03:38:48.278Z,20.88
2018-12-27T03:41:15.918Z,20.65
2018-12-27T03:43:43.507Z,19.80
2018-12-27T03:46:11.102Z,19.57
2018-12-27T03:48:38.716Z,16.93
2018-12-27T03:51:06.436Z,17.42
2018-12-27T03:53:34.016Z,17.27
2018-12-27T03:56:01.599Z,15.70
2018-12-27T03:58:29.219Z,17.17
2018-12-27T04:00:56.802Z,16.67
2018-12-27T04:03:24.450Z,13.80
2018-12-27T04:05:52.041Z,13.88
2018-12-27T04:08:19.638Z,14.47
2018-12-27T04:10:47.249Z,13.10
2018-12-27T04:13:14.840Z,14.65
2018-12-27T04:15:42.410Z,16.80
2018-12-27T04:18:09.920Z,17.07
2018-12-27T04:20:37.431Z,16.30
2018-12-27T04:23:04.968Z,19.60
2018-12-27T04:25:32.579Z,16.90
2018-12-27T04:28:00.118Z,15.85
2018-12-27T04:30:27.702Z,21.48
2018-12-27T04:32:55.682Z,16.10
2018-12-27T04:35:23.981Z,15.32
2018-12-27T04:37:51.490Z,18.87
2018-12-27T04:40:19.049Z,18.77
2018-12-27T04:42:46.635Z,17.57
2018-12-27T04:45:14.157Z,20.55
2018-12-27T04:47:41.713Z,18.65
2018-12-27T04:50:09.216Z,16.12
2018-12-27T04:52:36.739Z,15.55
2018-12-27T04:55:04.380Z,16.80
2018-12-27T04:57:31.892Z,18.10
2018-12-27T04:59:59.396Z,16.73
2018-12-27T05:02:26.929Z,18.57
2018-12-27T05:04:54.466Z,13.10
2018-12-27T05:07:22.023Z,14.47
2018-12-27T05:09:49.542Z,16.65
2018-12-27T05:12:17.055Z,16.55
2018-12-27T05:14:44.617Z,16.23
2018-12-27T05:17:12.134Z,18.30
2018-12-27T05:19:39.674Z,16.87
2018-12-27T05:22:07.186Z,19.15
2018-12-27T05:24:34.722Z,18.20
2018-12-27T05:27:02.248Z,16.55
2018-12-27T05:29:29.773Z,14.75
2018-12-27T05:31:57.313Z,16.23
2018-12-27T05:34:26.390Z,19.67
2018-12-27T05:36:54.051Z,16.73
2018-12-27T05:39:21.603Z,18.12
2018-12-27T05:41:49.124Z,15.45
2018-12-27T05:44:16.630Z,16.37
2018-12-27T05:46:44.198Z,17.85
2018-12-27T05:49:11.710Z,16.12
2018-12-27T05:51:39.223Z,16.23
2018-12-27T05:54:06.753Z,16.70
2018-12-27T05:56:34.269Z,12.90
2018-12-27T05:59:01.801Z,16.97
2018-12-27T06:01:29.334Z,14.63
2018-12-27T06:03:56.846Z,14.75
2018-12-27T06:06:24.386Z,15.90
2018-12-27T06:08:51.901Z,13.13
2018-12-27T06:11:19.471Z,17.35
2018-12-27T06:13:46.985Z,16.87
2018-12-27T06:16:14.501Z,16.07
2018-12-27T06:18:42.064Z,14.65
2018-12-27T06:21:09.577Z,17.52
2018-12-27T06:23:37.086Z,17.75
2018-12-27T06:26:04.735Z,16.80
2018-12-27T06:28:32.250Z,16.75
2018-12-27T06:30:59.762Z,14.80
2018-12-27T06:33:27.321Z,17.87
2018-12-27T06:35:54.887Z,13.10
2018-12-27T06:38:22.402Z,14.50
2018-12-27T06:40:49.919Z,18.17
2018-12-27T06:43:17.466Z,14.58
2018-12-27T06:45:44.982Z,13.25
2018-12-27T06:48:12.510Z,17.32
2018-12-27T06:50:40.048Z,13.48
2018-12-27T06:53:07.566Z,12.37
2018-12-27T06:55:35.121Z,12.63
2018-12-27T06:58:02.626Z,19.70
2018-12-27T07:00:30.164Z,14.18
2018-12-27T07:02:57.706Z,13.08
2018-12-27T07:05:25.224Z,14.53
2018-12-27T07:07:52.774Z,15.10
2018-12-27T07:10:20.287Z,14.10
2018-12-27T07:12:47.841Z,13.58
2018-12-27T07:15:15.358Z,15.03
2018-12-27T07:17:42.874Z,15.18
2018-12-27T07:20:10.479Z,14.78
2018-12-27T07:22:38.006Z,15.45
2018-12-27T07:25:05.559Z,12.05
2018-12-27T07:27:33.077Z,14.30
2018-12-27T07:30:00.585Z,17.42
2018-12-27T07:32:28.147Z,13.22
2018-12-27T07:34:56.689Z,13.75
2018-12-27T07:37:24.852Z,12.82
2018-12-27T07:39:52.389Z,14.93
2018-12-27T07:42:20.604Z,15.53
2018-12-27T07:44:48.130Z,14.40
2018-12-27T07:47:15.656Z,16.65
2018-12-27T07:49:43.196Z,15.10
2018-12-27T07:52:10.746Z,16.35
2018-12-27T07:54:38.277Z,15.13
2018-12-27T07:57:05.797Z,16.07
2018-12-27T07:59:33.369Z,15.38
2018-12-27T08:02:00.908Z,14.35
2018-12-27T08:04:28.424Z,13.80
2018-12-27T08:06:56.033Z,14.45
2018-12-27T08:09:23.621Z,13.88
2018-12-27T08:11:51.156Z,16.15
2018-12-27T08:14:18.805Z,15.15
2018-12-27T08:16:46.314Z,18.45
2018-12-27T08:19:13.826Z,14.75
2018-12-27T08:21:41.367Z,14.63
2018-12-27T08:24:08.914Z,17.00
2018-12-27T08:26:36.425Z,18.80
2018-12-27T08:29:03.956Z,26.40
2018-12-27T08:31:31.514Z,22.27
2018-12-27T08:33:59.035Z,20.02
2018-12-27T08:36:26.552Z,33.25
2018-12-27T08:38:54.095Z,24.25
2018-12-27T08:41:21.661Z,19.77
2018-12-27T08:43:49.190Z,25.72
2018-12-27T08:46:16.718Z,19.15
2018-12-27T08:48:44.274Z,19.25
2018-12-27T08:51:11.798Z,16.32
2018-12-27T08:53:39.323Z,19.55
2018-12-27T08:56:06.872Z,20.00
2018-12-27T08:58:34.390Z,16.60
2018-12-27T12:02:42.367Z,12.78
2018-12-27T12:05:09.884Z,11.33
2018-12-27T12:07:37.379Z,11.57
2018-12-27T12:10:05.968Z,11.30
2018-12-27T12:12:33.476Z,10.72
2018-12-27T12:15:00.971Z,11.10
2018-12-27T12:17:28.494Z,12.90
2018-12-27T12:19:55.996Z,11.80
2018-12-27T12:22:23.483Z,10.40
2018-12-27T12:24:51.008Z,10.90
2018-12-27T12:27:18.518Z,11.97
2018-12-27T12:29:46.026Z,11.30
2018-12-27T12:32:13.536Z,13.50
2018-12-27T12:34:41.055Z,11.78
2018-12-27T12:37:13.947Z,13.65
2018-12-27T12:39:37.792Z,11.20
2018-12-27T12:42:05.324Z,13.55
2018-12-27T12:44:32.822Z,11.83
2018-12-27T12:47:00.330Z,12.05
2018-12-27T12:49:27.851Z,13.68
2018-12-27T12:51:55.349Z,11.40
2018-12-27T12:54:22.882Z,13.20
2018-12-27T12:56:50.380Z,13.95
2018-12-27T12:59:17.888Z,13.05
2018-12-27T13:01:45.411Z,12.28
2018-12-27T13:04:12.942Z,14.15
2018-12-27T13:06:40.452Z,12.60
2018-12-27T13:09:07.949Z,12.40
2018-12-27T13:11:35.491Z,12.30
2018-12-27T13:14:03.123Z,13.28
2018-12-27T13:16:30.628Z,14.53
2018-12-27T13:18:58.123Z,12.58
2018-12-27T13:21:25.659Z,11.70
2018-12-27T13:23:53.159Z,13.00
2018-12-27T13:26:20.673Z,11.85
2018-12-27T13:28:48.203Z,11.48
2018-12-27T13:31:15.740Z,12.18
2018-12-27T13:33:43.244Z,13.48
2018-12-27T13:36:10.901Z,11.78
2018-12-27T13:38:38.411Z,13.10
2018-12-27T13:41:05.910Z,14.80
2018-12-27T13:43:33.454Z,14.20
2018-12-27T13:46:00.962Z,14.15
2018-12-27T13:48:28.454Z,14.85
2018-12-27T13:50:56.004Z,14.63
2018-12-27T13:53:23.501Z,16.07
2018-12-27T13:55:50.992Z,14.93
2018-12-27T13:58:18.521Z,16.20
2018-12-27T14:00:46.021Z,13.48
2018-12-27T14:03:13.559Z,12.35
2018-12-27T14:05:41.063Z,14.25
2018-12-27T14:08:08.564Z,14.45
2018-12-27T14:10:36.078Z,15.05
2018-12-27T14:13:03.591Z,16.40
2018-12-27T14:15:31.099Z,15.75
2018-12-27T14:17:58.668Z,15.00
2018-12-27T14:20:26.172Z,14.38
2018-12-27T14:22:53.667Z,15.03
2018-12-27T14:25:21.194Z,14.43
2018-12-27T14:27:48.695Z,16.93
2018-12-27T14:30:16.200Z,15.30
2018-12-27T14:32:43.738Z,13.60
2018-12-27T14:35:11.239Z,14.35
2018-12-27T14:37:38.743Z,18.70
2018-12-27T14:40:07.575Z,14.55
2018-12-27T14:42:35.282Z,13.58
2018-12-27T14:45:02.787Z,12.40
2018-12-27T14:47:30.304Z,12.50
2018-12-27T14:49:57.803Z,11.93
2018-12-27T14:52:25.295Z,15.58
2018-12-27T14:54:52.851Z,12.80
2018-12-27T14:57:20.347Z,10.90
2018-12-27T14:59:47.849Z,12.55
2018-12-27T15:02:15.386Z,13.95
2018-12-27T15:04:42.895Z,11.65
2018-12-27T15:07:10.392Z,12.68
2018-12-27T15:09:37.924Z,12.25
2018-12-27T15:12:05.428Z,12.00
2018-12-27T15:14:32.959Z,12.10
2018-12-27T15:17:00.506Z,12.20
2018-12-27T15:19:28.003Z,11.95
2018-12-27T15:21:55.532Z,10.88
2018-12-27T15:24:23.044Z,12.25
2018-12-27T15:26:50.575Z,12.45
2018-12-27T15:29:18.077Z,12.40
2018-12-27T15:31:45.585Z,12.20
2018-12-27T15:34:13.103Z,13.48
2018-12-27T15:36:40.627Z,10.93
2018-12-27T15:39:08.228Z,12.40
2018-12-27T15:41:35.727Z,13.45
2018-12-27T15:44:03.263Z,11.85
2018-12-27T15:46:30.766Z,12.30
2018-12-27T15:48:58.276Z,11.73
2018-12-27T15:51:25.811Z,11.30
2018-12-27T15:53:53.300Z,11.25
2018-12-27T15:56:20.819Z,10.98
2018-12-27T15:58:48.320Z,11.90
2018-12-27T16:01:15.839Z,10.68
2018-12-27T16:03:43.334Z,11.65
2018-12-27T16:06:10.835Z,10.50
2018-12-27T16:08:38.375Z,11.70
2018-12-27T16:11:05.885Z,12.30
2018-12-27T16:13:33.379Z,10.50
2018-12-27T16:16:00.888Z,11.10
2018-12-27T16:18:28.521Z,11.50
2018-12-27T16:20:56.012Z,12.35
2018-12-27T16:23:23.496Z,10.48
2018-12-27T16:25:51.064Z,11.18
2018-12-27T16:28:18.558Z,12.15
2018-12-27T16:30:46.060Z,13.05
2018-12-27T16:33:13.638Z,9.83
2018-12-27T16:35:41.100Z,10.72
2018-12-27T16:38:08.600Z,10.70
2018-12-27T16:40:36.081Z,10.20
2018-12-27T16:43:03.640Z,14.95
2018-12-27T16:45:31.128Z,9.55
2018-12-27T16:47:58.619Z,10.20
2018-12-27T16:50:26.131Z,11.08
2018-12-27T16:52:53.632Z,11.40
2018-12-27T16:55:21.162Z,12.50
2018-12-27T16:57:48.670Z,9.43
2018-12-27T17:00:16.198Z,11.18
2018-12-27T17:02:43.694Z,10.20
2018-12-27T17:05:11.187Z,10.88
2018-12-27T17:07:38.703Z,11.40
2018-12-27T17:10:06.367Z,10.32
2018-12-27T17:12:33.931Z,10.60
2018-12-27T17:15:01.447Z,10.23
2018-12-27T17:17:28.958Z,9.60
2018-12-27T17:19:56.461Z,10.25
2018-12-27T17:22:23.978Z,9.80
2018-12-27T17:24:51.463Z,9.93
2018-12-27T17:27:18.964Z,10.18
2018-12-27T17:29:46.510Z,11.20
2018-12-27T17:32:14.003Z,10.35
2018-12-27T17:34:41.504Z,10.90
2018-12-27T17:37:09.024Z,9.88
2018-12-27T17:39:36.519Z,10.90
2018-12-27T17:42:04.059Z,11.38
2018-12-27T17:44:31.559Z,9.83
2018-12-27T17:46:59.056Z,12.25
2018-12-27T17:49:26.571Z,11.80
2018-12-27T17:51:54.068Z,9.63
2018-12-27T17:54:21.586Z,9.43
2018-12-27T17:56:49.076Z,10.60
2018-12-27T17:59:16.585Z,9.25
2018-12-27T18:01:44.074Z,11.68
2018-12-27T18:04:11.599Z,10.10
2018-12-27T18:06:39.142Z,10.00
2018-12-27T18:09:06.635Z,9.10
2018-12-27T18:11:34.123Z,8.73
2018-12-27T18:14:01.637Z,10.00
2018-12-27T18:16:29.132Z,10.28
2018-12-27T18:18:56.639Z,9.68
2018-12-27T18:21:24.147Z,12.53
2018-12-27T18:23:51.676Z,10.90
2018-12-27T18:26:19.175Z,10.28
2018-12-27T18:28:46.660Z,10.38
2018-12-27T18:31:14.203Z,10.78
2018-12-27T18:33:41.692Z,9.08
2018-12-27T18:36:09.193Z,11.73
2018-12-27T18:38:36.706Z,10.32
2018-12-27T18:41:04.197Z,10.75
2018-12-27T18:43:31.723Z,9.00
2018-12-27T18:45:59.223Z,9.48
2018-12-27T18:48:26.719Z,8.60
2018-12-27T18:50:54.262Z,9.68
2018-12-27T18:53:21.749Z,9.50
2018-12-27T18:55:49.237Z,8.50
2018-12-27T18:58:16.748Z,8.80
2018-12-27T19:00:44.271Z,12.90
2018-12-27T19:03:11.792Z,9.98
2018-12-27T19:05:39.283Z,11.35
2018-12-27T19:08:06.794Z,10.72
2018-12-27T19:10:34.287Z,9.25
2018-12-27T19:13:03.352Z,9.03
2018-12-27T19:15:31.608Z,9.20
2018-12-27T19:17:59.243Z,9.68
2018-12-27T19:20:26.736Z,9.13
2018-12-27T19:22:58.721Z,9.13
2018-12-27T19:25:26.239Z,12.18
2018-12-27T19:27:53.753Z,8.85
2018-12-27T19:30:21.266Z,10.75
2018-12-27T19:32:48.762Z,10.50
2018-12-27T19:35:33.050Z,10.75
2018-12-27T19:37:56.099Z,10.80
2018-12-27T19:40:23.645Z,10.10
2018-12-27T19:42:51.167Z,9.40
2018-12-27T19:45:18.684Z,10.13
2018-12-27T19:47:46.178Z,10.65
2018-12-27T19:50:13.687Z,10.65
2018-12-27T19:52:41.183Z,10.60
2018-12-27T19:55:08.701Z,11.00
2018-12-27T19:57:36.206Z,12.07
2018-12-27T20:00:03.927Z,11.25
2018-12-27T20:02:31.435Z,11.35
2018-12-27T20:05:06.773Z,12.95
2018-12-27T20:07:34.285Z,12.50
2018-12-27T20:10:01.780Z,12.03
2018-12-27T20:12:29.283Z,11.00
2018-12-27T20:14:56.807Z,11.28
2018-12-27T20:17:24.319Z,14.33
2018-12-27T20:19:51.868Z,13.72
2018-12-27T20:22:19.403Z,12.50
2018-12-27T20:24:46.910Z,12.35
2018-12-27T20:27:14.429Z,16.42
2018-12-27T20:29:41.927Z,12.10
2018-12-27T20:32:09.455Z,12.43
2018-12-27T20:34:36.963Z,12.20
2018-12-27T20:37:04.505Z,11.88
2018-12-27T20:39:32.019Z,13.62
2018-12-27T20:41:59.524Z,12.33
2018-12-27T20:44:27.055Z,12.85
2018-12-27T20:46:54.560Z,13.20
2018-12-27T20:49:22.057Z,14.07
2018-12-27T20:51:49.587Z,13.40
2018-12-27T20:54:17.174Z,14.73
2018-12-27T20:56:44.731Z,12.78
2018-12-27T20:59:12.221Z,15.60
2018-12-27T21:01:39.864Z,15.05
2018-12-27T21:04:07.834Z,14.03
2018-12-27T21:06:35.396Z,12.90
2018-12-27T21:09:02.928Z,15.90
2018-12-27T21:11:30.569Z,13.48
2018-12-27T21:13:58.487Z,13.60
2018-12-27T21:16:25.991Z,15.05
2018-12-27T21:18:53.679Z,14.70
2018-12-27T21:21:21.180Z,14.60
2018-12-27T21:23:51.129Z,13.93
2018-12-27T21:26:18.645Z,13.62
2018-12-27T21:28:49.321Z,14.90
2018-12-27T21:31:21.683Z,13.75
2018-12-27T21:33:49.375Z,16.80
2018-12-27T21:36:21.268Z,13.58
2018-12-27T21:38:53.865Z,13.30
2018-12-27T21:41:22.215Z,14.60
2018-12-27T21:43:52.463Z,15.60
2018-12-27T21:46:22.346Z,14.03
2018-12-27T21:48:50.159Z,15.32
2018-12-27T21:51:20.895Z,14.47
2018-12-27T21:53:49.403Z,14.83
2018-12-27T21:56:17.812Z,14.47
2018-12-27T21:58:47.711Z,16.10
2018-12-27T22:01:15.356Z,14.13
2018-12-27T22:03:43.683Z,14.68
2018-12-27T22:06:12.641Z,15.38
2018-12-27T22:08:40.763Z,16.42
2018-12-27T22:11:09.037Z,15.15
2018-12-27T22:13:41.468Z,19.85
2018-12-27T22:16:11.578Z,18.75
2018-12-27T22:18:41.535Z,18.75
2018-12-27T22:21:13.439Z,17.48
2018-12-27T22:23:41.941Z,16.42
2018-12-27T22:26:09.896Z,16.75
2018-12-27T22:28:38.316Z,17.85
2018-12-27T22:31:08.145Z,23.12
2018-12-27T22:33:38.521Z,17.30
2018-12-27T22:36:07.218Z,16.85
2018-12-27T22:38:39.575Z,16.87
2018-12-27T22:41:08.597Z,17.12
2018-12-27T22:43:39.152Z,17.73
2018-12-27T22:46:06.937Z,17.82
2018-12-27T22:48:35.802Z,17.07
2018-12-27T22:51:04.234Z,16.32
2018-12-27T22:53:42.298Z,18.50
2018-12-27T22:56:10.318Z,17.90
2018-12-27T22:58:40.441Z,17.27
2018-12-27T23:01:10.198Z,18.70
2018-12-27T23:03:39.781Z,18.70
2018-12-27T23:06:10.417Z,18.87
2018-12-27T23:08:43.140Z,18.37
2018-12-27T23:11:11.230Z,18.80
2018-12-27T23:13:40.510Z,19.25
2018-12-27T23:16:08.933Z,22.20
2018-12-27T23:18:37.704Z,20.27
2018-12-27T23:21:06.466Z,18.73
2018-12-27T23:23:34.662Z,19.45
2018-12-27T23:26:03.184Z,18.85
2018-12-27T23:28:32.893Z,20.88
2018-12-27T23:31:01.714Z,20.05
2018-12-27T23:33:29.811Z,24.75
2018-12-27T23:35:58.211Z,19.82
2018-12-27T23:38:26.328Z,19.73
2018-12-27T23:40:54.951Z,19.57
2018-12-27T23:43:24.731Z,20.45
2018-12-27T23:45:55.395Z,20.80
2018-12-27T23:48:24.501Z,21.77
2018-12-27T23:50:53.419Z,19.30
2018-12-27T23:53:22.095Z,19.25
2018-12-27T23:55:50.319Z,19.48
2018-12-27T23:58:17.852Z,22.30
